createdAt,value
2023-05-21T00:03:56.498Z,78.09
2023-05-21T00:08:59.122Z,78.08
2023-05-21T00:14:01.697Z,78.21
2023-05-21T00:19:04.340Z,78.21
2023-05-21T00:24:07.455Z,78.30
2023-05-21T00:29:10.004Z,78.46
2023-05-21T00:34:13.724Z,78.67
2023-05-21T00:39:16.351Z,78.55
2023-05-21T00:44:19.598Z,78.60
2023-05-21T00:49:24.353Z,78.76
2023-05-21T00:54:28.033Z,79.10
2023-05-21T00:59:32.185Z,79.38
2023-05-21T01:04:35.427Z,79.45
2023-05-21T01:09:39.341Z,79.56
2023-05-21T01:14:42.605Z,79.65
2023-05-21T01:19:45.266Z,79.86
2023-05-21T01:24:51.111Z,79.99
2023-05-21T01:29:53.901Z,80.11
2023-05-21T01:35:04.435Z,80.41
2023-05-21T01:40:33.238Z,80.58
2023-05-21T01:45:39.699Z,80.65
2023-05-21T01:50:45.818Z,80.71
2023-05-21T01:55:48.689Z,80.64
2023-05-21T02:00:51.746Z,80.68
2023-05-21T02:05:55.598Z,80.68
2023-05-21T02:10:58.232Z,80.69
2023-05-21T02:16:01.533Z,80.85
2023-05-21T02:21:04.128Z,80.85
2023-05-21T02:26:06.683Z,80.74
2023-05-21T02:31:09.225Z,80.64
2023-05-21T02:36:15.509Z,80.70
2023-05-21T02:41:18.108Z,80.78
2023-05-21T02:46:20.776Z,80.95
2023-05-21T02:51:23.460Z,80.96
2023-05-21T02:56:26.050Z,80.79
2023-05-21T03:01:28.599Z,80.59
2023-05-21T03:06:32.576Z,80.21
2023-05-21T03:11:35.067Z,79.99
2023-05-21T03:16:38.086Z,79.65
2023-05-21T03:21:41.705Z,79.28
2023-05-21T03:26:44.305Z,78.58
2023-05-21T03:31:46.964Z,77.99
2023-05-21T03:36:49.680Z,77.29
2023-05-21T03:41:52.205Z,76.49
2023-05-21T03:46:54.718Z,75.80
2023-05-21T03:51:57.528Z,75.10
2023-05-21T03:57:00.109Z,74.71
2023-05-21T04:02:03.029Z,74.54
2023-05-21T04:07:05.562Z,74.28
2023-05-21T04:12:08.746Z,74.17
2023-05-21T04:17:12.561Z,73.79
2023-05-21T04:22:15.167Z,73.45
2023-05-21T04:27:17.727Z,72.86
2023-05-21T04:32:20.795Z,72.15
2023-05-21T04:37:26.115Z,71.30
2023-05-21T04:42:29.995Z,70.22
2023-05-21T04:47:35.827Z,69.76
2023-05-21T04:52:40.126Z,69.59
2023-05-21T04:57:42.617Z,68.55
2023-05-21T05:07:48.111Z,54.47
2023-05-21T05:12:50.979Z,46.52
2023-05-21T05:17:54.580Z,39.80
2023-05-21T05:22:57.333Z,35.43
2023-05-21T05:27:59.966Z,34.07
2023-05-21T05:33:02.574Z,30.43
2023-05-21T05:38:05.711Z,28.64
2023-05-21T05:43:08.948Z,27.75
2023-05-21T05:48:12.066Z,27.14
2023-05-21T05:53:14.674Z,25.38
2023-05-21T05:58:17.269Z,23.77
2023-05-21T06:03:19.965Z,22.98
2023-05-21T06:08:23.318Z,22.82
2023-05-21T06:13:25.945Z,22.67
2023-05-21T06:18:28.465Z,21.03
2023-05-21T06:23:32.576Z,20.72
2023-05-21T06:28:36.289Z,20.81
2023-05-21T06:33:38.963Z,20.16
2023-05-21T06:38:42.707Z,19.70
2023-05-21T06:43:45.382Z,19.06
2023-05-21T06:48:50.024Z,18.93
2023-05-21T06:53:52.919Z,18.78
2023-05-21T06:58:55.559Z,18.43
2023-05-21T07:03:58.294Z,18.68
2023-05-21T07:09:02.159Z,18.40
2023-05-21T07:14:04.794Z,18.06
2023-05-21T07:19:07.475Z,17.86
2023-05-21T07:24:10.119Z,18.02
2023-05-21T07:29:12.760Z,17.64
2023-05-21T07:34:15.882Z,17.76
2023-05-21T07:39:18.434Z,17.64
2023-05-21T07:44:20.930Z,17.65
2023-05-21T07:49:23.597Z,17.74
2023-05-21T07:54:26.331Z,18.19
2023-05-21T07:59:28.971Z,18.85
2023-05-21T08:04:31.826Z,18.63
2023-05-21T08:09:34.521Z,18.92
2023-05-21T08:14:37.054Z,18.95
2023-05-21T08:19:39.650Z,19.26
2023-05-21T08:24:42.222Z,19.64
2023-05-21T08:29:44.859Z,19.33
2023-05-21T08:34:47.397Z,19.94
2023-05-21T08:39:49.939Z,19.74
2023-05-21T08:44:59.284Z,20.04
2023-05-21T08:50:05.501Z,20.75
2023-05-21T08:55:09.022Z,21.43
2023-05-21T09:00:12.050Z,21.16
2023-05-21T09:05:15.459Z,21.58
2023-05-21T09:10:21.679Z,21.91
2023-05-21T09:15:24.476Z,22.06
2023-05-21T09:20:28.245Z,22.57
2023-05-21T09:25:31.635Z,22.23
2023-05-21T09:30:36.102Z,21.78
2023-05-21T09:35:46.246Z,22.10
2023-05-21T09:40:48.782Z,22.69
2023-05-21T09:45:56.919Z,23.27
2023-05-21T09:51:17.117Z,24.22
2023-05-21T09:56:24.867Z,24.08
2023-05-21T10:01:30.799Z,24.04
2023-05-21T10:06:43.142Z,24.33
2023-05-21T10:11:49.061Z,24.49
2023-05-21T10:16:54.077Z,24.15
2023-05-21T10:21:57.107Z,24.55
2023-05-21T10:27:01.775Z,24.79
2023-05-21T10:32:05.900Z,23.51
2023-05-21T10:37:10.687Z,23.46
2023-05-21T10:42:35.578Z,23.38
2023-05-21T10:48:01.706Z,23.67
2023-05-21T10:53:36.601Z,24.01
2023-05-21T10:59:05.130Z,23.92
2023-05-21T11:04:09.763Z,24.02
2023-05-21T11:09:13.674Z,23.19
2023-05-21T11:14:35.292Z,23.46
2023-05-21T11:19:39.212Z,24.09
2023-05-21T11:24:43.074Z,24.05
2023-05-21T11:29:47.451Z,24.48
2023-05-21T11:34:50.412Z,24.54
2023-05-21T11:39:54.582Z,25.06
2023-05-21T11:44:59.152Z,25.50
2023-05-21T11:50:04.468Z,25.28
2023-05-21T11:55:07.479Z,25.46
2023-05-21T12:00:15.220Z,25.08
2023-05-21T12:05:17.973Z,25.29
2023-05-21T12:10:22.256Z,24.66
2023-05-21T12:15:26.738Z,24.80
2023-05-21T12:20:30.028Z,24.67
2023-05-21T12:25:35.639Z,24.44
2023-05-21T12:30:38.346Z,24.44
2023-05-21T12:35:41.264Z,24.61
2023-05-21T12:40:45.440Z,24.77
2023-05-21T12:45:48.155Z,24.27
2023-05-21T12:50:52.217Z,23.98
2023-05-21T12:56:07.954Z,24.07
2023-05-21T13:01:12.069Z,24.42
2023-05-21T13:06:14.702Z,24.10
2023-05-21T13:11:17.385Z,24.29
2023-05-21T13:16:21.946Z,23.88
2023-05-21T13:21:24.675Z,24.02
2023-05-21T13:26:27.306Z,23.72
2023-05-21T13:31:29.831Z,23.64
2023-05-21T13:36:32.494Z,23.73
2023-05-21T13:41:35.079Z,23.98
2023-05-21T13:46:39.510Z,23.78
2023-05-21T13:51:43.420Z,23.56
2023-05-21T13:56:45.931Z,24.26
2023-05-21T14:01:49.816Z,24.94
2023-05-21T14:06:52.667Z,25.14
2023-05-21T14:11:56.094Z,25.10
2023-05-21T14:16:58.991Z,24.97
2023-05-21T14:22:01.792Z,24.59
2023-05-21T14:27:04.403Z,24.55
2023-05-21T14:32:07.754Z,24.43
2023-05-21T14:37:10.669Z,24.86
2023-05-21T14:42:13.185Z,24.90
2023-05-21T14:47:15.775Z,24.66
2023-05-21T14:52:18.682Z,23.98
2023-05-21T14:57:21.321Z,23.43
2023-05-21T15:02:24.344Z,23.48
2023-05-21T15:07:27.033Z,23.59
2023-05-21T15:12:30.594Z,23.67
2023-05-21T15:17:33.988Z,23.99
2023-05-21T15:22:36.753Z,24.16
2023-05-21T15:27:39.268Z,24.00
2023-05-21T15:32:42.375Z,24.20
2023-05-21T15:37:45.568Z,24.60
2023-05-21T15:42:48.215Z,24.78
2023-05-21T15:47:50.992Z,24.29
2023-05-21T15:52:53.813Z,24.19
2023-05-21T15:57:56.360Z,24.25
2023-05-21T16:02:58.940Z,23.95
2023-05-21T16:08:01.524Z,24.12
2023-05-21T16:13:04.066Z,24.13
2023-05-21T16:18:08.239Z,24.08
2023-05-21T16:23:12.067Z,23.98
2023-05-21T16:28:14.792Z,24.20
2023-05-21T16:33:17.636Z,24.48
2023-05-21T16:38:21.314Z,24.15
2023-05-21T16:43:23.875Z,24.21
2023-05-21T16:48:26.359Z,24.69
2023-05-21T16:53:28.922Z,24.78
2023-05-21T16:58:33.160Z,24.93
2023-05-21T17:03:36.520Z,25.69
2023-05-21T17:08:39.350Z,27.30
2023-05-21T17:13:42.148Z,28.12
2023-05-21T17:18:44.720Z,28.49
2023-05-21T17:23:47.572Z,29.00
2023-05-21T17:28:50.131Z,29.30
2023-05-21T17:33:52.796Z,29.66
2023-05-21T17:38:55.712Z,30.04
2023-05-21T17:43:58.336Z,30.12
2023-05-21T17:49:03.602Z,30.42
2023-05-21T17:54:07.965Z,30.82
2023-05-21T17:59:11.587Z,31.23
2023-05-21T18:04:14.153Z,31.53
2023-05-21T18:09:16.933Z,31.77
2023-05-21T18:14:19.592Z,32.20
2023-05-21T18:19:22.144Z,32.52
2023-05-21T18:24:24.764Z,32.93
2023-05-21T18:29:27.253Z,33.20
2023-05-21T18:34:30.504Z,33.68
2023-05-21T18:39:33.088Z,33.99
2023-05-21T18:44:35.593Z,34.38
2023-05-21T18:49:38.844Z,34.79
2023-05-21T18:54:41.347Z,35.27
2023-05-21T18:59:44.246Z,35.58
2023-05-21T19:04:47.129Z,35.96
2023-05-21T19:09:49.847Z,36.28
2023-05-21T19:14:52.430Z,36.49
2023-05-21T19:19:57.568Z,36.95
2023-05-21T19:25:00.717Z,37.21
2023-05-21T19:30:04.131Z,37.33
2023-05-21T19:35:07.702Z,37.61
2023-05-21T19:40:10.633Z,37.83
2023-05-21T19:45:15.423Z,38.19
2023-05-21T19:50:19.026Z,38.89
2023-05-21T19:55:22.642Z,38.98
2023-05-21T20:00:27.300Z,39.25
2023-05-21T20:05:29.816Z,39.31
2023-05-21T20:10:32.602Z,39.61
2023-05-21T20:15:36.119Z,40.30
2023-05-21T20:20:39.249Z,40.96
2023-05-21T20:25:42.118Z,41.71
2023-05-21T20:31:02.460Z,42.43
2023-05-21T20:36:05.460Z,43.08
2023-05-21T20:41:08.025Z,43.85
2023-05-21T20:46:10.954Z,44.67
2023-05-21T20:51:13.874Z,45.57
2023-05-21T20:56:21.770Z,46.36
2023-05-21T21:01:30.353Z,46.92
2023-05-21T21:06:33.740Z,47.55
2023-05-21T21:11:36.795Z,48.21
2023-05-21T21:16:39.377Z,49.16
2023-05-21T21:21:42.009Z,50.33
2023-05-21T21:26:44.529Z,51.32
2023-05-21T21:31:47.565Z,52.43
2023-05-21T21:36:50.893Z,53.15
2023-05-21T21:41:53.675Z,53.57
2023-05-21T21:46:56.228Z,53.67
2023-05-21T21:51:58.805Z,53.68
2023-05-21T21:57:01.353Z,53.97
2023-05-21T22:02:04.404Z,54.61
2023-05-21T22:07:10.681Z,55.32
2023-05-21T22:12:13.740Z,56.08
2023-05-21T22:17:17.724Z,56.98
2023-05-21T22:22:20.261Z,57.78
2023-05-21T22:27:22.799Z,57.97
2023-05-21T22:32:25.410Z,57.84
2023-05-21T22:37:28.325Z,57.84
2023-05-21T22:42:30.897Z,58.11
2023-05-21T22:47:33.639Z,58.04
2023-05-21T22:52:38.014Z,58.36
2023-05-21T22:57:40.720Z,58.56
2023-05-21T23:02:43.241Z,58.86
2023-05-21T23:07:45.995Z,58.94
2023-05-21T23:12:48.516Z,58.71
2023-05-21T23:17:51.105Z,58.76
2023-05-21T23:22:53.742Z,58.51
2023-05-21T23:27:56.244Z,58.67
2023-05-21T23:32:59.425Z,59.22
2023-05-21T23:38:02.116Z,59.51
2023-05-21T23:43:04.862Z,60.41
2023-05-21T23:48:07.740Z,60.97
2023-05-21T23:53:10.559Z,61.41
2023-05-21T23:58:13.098Z,61.90
